sensor_id;sensor_type;location;lat;lon;timestamp;temperature;humidity
74809;DHT22;63338;39.544;2.596;2023-05-31T00:00:13;18.00;81.70
74809;DHT22;63338;39.544;2.596;2023-05-31T00:02:39;17.90;81.80
74809;DHT22;63338;39.544;2.596;2023-05-31T00:05:06;17.90;81.90
74809;DHT22;63338;39.544;2.596;2023-05-31T00:07:32;17.80;81.90
74809;DHT22;63338;39.544;2.596;2023-05-31T00:09:58;17.70;82.00
74809;DHT22;63338;39.544;2.596;2023-05-31T00:12:24;17.70;82.30
74809;DHT22;63338;39.544;2.596;2023-05-31T00:14:50;17.80;82.30
74809;DHT22;63338;39.544;2.596;2023-05-31T00:17:16;17.70;82.40
74809;DHT22;63338;39.544;2.596;2023-05-31T00:19:43;17.80;82.20
74809;DHT22;63338;39.544;2.596;2023-05-31T00:22:12;17.70;82.20
74809;DHT22;63338;39.544;2.596;2023-05-31T00:24:41;17.70;82.40
74809;DHT22;63338;39.544;2.596;2023-05-31T00:27:07;17.80;82.40
74809;DHT22;63338;39.544;2.596;2023-05-31T00:29:40;17.80;82.30
74809;DHT22;63338;39.544;2.596;2023-05-31T00:32:06;17.80;82.20
74809;DHT22;63338;39.544;2.596;2023-05-31T00:34:33;17.60;82.30
74809;DHT22;63338;39.544;2.596;2023-05-31T00:37:00;17.60;82.30
74809;DHT22;63338;39.544;2.596;2023-05-31T00:39:26;17.70;82.40
74809;DHT22;63338;39.544;2.596;2023-05-31T00:41:53;17.60;82.30
74809;DHT22;63338;39.544;2.596;2023-05-31T00:44:20;17.60;82.30
74809;DHT22;63338;39.544;2.596;2023-05-31T00:46:48;17.60;82.30
74809;DHT22;63338;39.544;2.596;2023-05-31T00:49:14;17.60;82.20
74809;DHT22;63338;39.544;2.596;2023-05-31T00:51:41;17.60;82.40
74809;DHT22;63338;39.544;2.596;2023-05-31T00:54:08;17.50;82.40
74809;DHT22;63338;39.544;2.596;2023-05-31T00:56:34;17.40;82.60
74809;DHT22;63338;39.544;2.596;2023-05-31T00:59:00;17.40;82.80
74809;DHT22;63338;39.544;2.596;2023-05-31T01:01:26;17.40;82.80
74809;DHT22;63338;39.544;2.596;2023-05-31T01:03:53;17.40;82.80
74809;DHT22;63338;39.544;2.596;2023-05-31T01:06:20;17.30;83.00
74809;DHT22;63338;39.544;2.596;2023-05-31T01:08:47;17.30;82.90
74809;DHT22;63338;39.544;2.596;2023-05-31T01:13:59;17.20;83.10
74809;DHT22;63338;39.544;2.596;2023-05-31T01:16:41;17.20;83.20
74809;DHT22;63338;39.544;2.596;2023-05-31T01:19:25;17.20;83.20
74809;DHT22;63338;39.544;2.596;2023-05-31T01:22:25;17.20;83.20
74809;DHT22;63338;39.544;2.596;2023-05-31T01:27:25;17.20;83.30
74809;DHT22;63338;39.544;2.596;2023-05-31T01:29:52;17.10;83.10
74809;DHT22;63338;39.544;2.596;2023-05-31T01:32:20;17.10;83.30
74809;DHT22;63338;39.544;2.596;2023-05-31T01:34:48;17.20;83.40
74809;DHT22;63338;39.544;2.596;2023-05-31T01:37:15;17.20;82.80
74809;DHT22;63338;39.544;2.596;2023-05-31T01:39:42;17.20;82.70
74809;DHT22;63338;39.544;2.596;2023-05-31T01:42:09;17.20;82.40
74809;DHT22;63338;39.544;2.596;2023-05-31T01:44:36;17.30;82.10
74809;DHT22;63338;39.544;2.596;2023-05-31T01:47:08;17.20;81.50
74809;DHT22;63338;39.544;2.596;2023-05-31T01:49:36;17.30;81.60
74809;DHT22;63338;39.544;2.596;2023-05-31T01:52:05;17.30;81.80
74809;DHT22;63338;39.544;2.596;2023-05-31T01:54:32;17.30;82.10
74809;DHT22;63338;39.544;2.596;2023-05-31T01:56:59;17.30;81.80
74809;DHT22;63338;39.544;2.596;2023-05-31T01:59:29;17.40;82.00
74809;DHT22;63338;39.544;2.596;2023-05-31T02:01:56;17.20;82.00
74809;DHT22;63338;39.544;2.596;2023-05-31T02:04:22;17.30;81.90
74809;DHT22;63338;39.544;2.596;2023-05-31T02:06:48;17.30;82.10
74809;DHT22;63338;39.544;2.596;2023-05-31T02:09:14;17.20;82.30
74809;DHT22;63338;39.544;2.596;2023-05-31T02:11:40;17.30;82.30
74809;DHT22;63338;39.544;2.596;2023-05-31T02:14:06;17.20;82.60
74809;DHT22;63338;39.544;2.596;2023-05-31T02:16:32;17.20;82.30
74809;DHT22;63338;39.544;2.596;2023-05-31T02:18:58;17.20;82.60
74809;DHT22;63338;39.544;2.596;2023-05-31T02:21:24;17.20;82.30
74809;DHT22;63338;39.544;2.596;2023-05-31T02:23:50;17.10;82.70
74809;DHT22;63338;39.544;2.596;2023-05-31T02:26:17;17.10;82.60
74809;DHT22;63338;39.544;2.596;2023-05-31T02:28:43;17.10;82.70
74809;DHT22;63338;39.544;2.596;2023-05-31T02:31:10;17.00;82.60
74809;DHT22;63338;39.544;2.596;2023-05-31T02:33:36;17.00;82.70
74809;DHT22;63338;39.544;2.596;2023-05-31T02:36:02;17.10;83.00
74809;DHT22;63338;39.544;2.596;2023-05-31T02:38:28;17.00;83.10
74809;DHT22;63338;39.544;2.596;2023-05-31T02:40:54;16.90;83.10
74809;DHT22;63338;39.544;2.596;2023-05-31T02:43:20;16.90;83.30
74809;DHT22;63338;39.544;2.596;2023-05-31T02:45:46;16.90;83.40
74809;DHT22;63338;39.544;2.596;2023-05-31T02:48:12;16.90;83.30
74809;DHT22;63338;39.544;2.596;2023-05-31T02:50:38;16.90;83.40
74809;DHT22;63338;39.544;2.596;2023-05-31T02:53:04;16.90;83.50
74809;DHT22;63338;39.544;2.596;2023-05-31T02:55:32;16.80;83.60
74809;DHT22;63338;39.544;2.596;2023-05-31T02:57:58;16.70;83.60
74809;DHT22;63338;39.544;2.596;2023-05-31T03:00:24;16.80;83.80
74809;DHT22;63338;39.544;2.596;2023-05-31T03:02:55;16.80;83.90
74809;DHT22;63338;39.544;2.596;2023-05-31T03:05:21;16.80;84.00
74809;DHT22;63338;39.544;2.596;2023-05-31T03:07:49;16.80;84.20
74809;DHT22;63338;39.544;2.596;2023-05-31T03:10:15;16.80;84.10
74809;DHT22;63338;39.544;2.596;2023-05-31T03:12:41;16.70;84.10
74809;DHT22;63338;39.544;2.596;2023-05-31T03:15:09;16.60;84.30
74809;DHT22;63338;39.544;2.596;2023-05-31T03:17:35;16.70;84.40
74809;DHT22;63338;39.544;2.596;2023-05-31T03:20:04;16.70;84.30
74809;DHT22;63338;39.544;2.596;2023-05-31T03:22:32;16.80;84.40
74809;DHT22;63338;39.544;2.596;2023-05-31T03:24:59;16.70;84.60
74809;DHT22;63338;39.544;2.596;2023-05-31T03:27:25;16.70;84.70
74809;DHT22;63338;39.544;2.596;2023-05-31T03:29:51;16.60;84.60
74809;DHT22;63338;39.544;2.596;2023-05-31T03:32:17;16.60;84.60
74809;DHT22;63338;39.544;2.596;2023-05-31T03:34:43;16.60;84.60
74809;DHT22;63338;39.544;2.596;2023-05-31T03:37:09;16.50;85.10
74809;DHT22;63338;39.544;2.596;2023-05-31T03:39:38;16.60;85.10
74809;DHT22;63338;39.544;2.596;2023-05-31T03:42:05;16.50;85.20
74809;DHT22;63338;39.544;2.596;2023-05-31T03:44:32;16.40;85.40
74809;DHT22;63338;39.544;2.596;2023-05-31T03:46:58;16.40;85.60
74809;DHT22;63338;39.544;2.596;2023-05-31T03:49:24;16.50;86.00
74809;DHT22;63338;39.544;2.596;2023-05-31T03:51:50;16.50;85.90
74809;DHT22;63338;39.544;2.596;2023-05-31T03:54:17;16.50;85.90
74809;DHT22;63338;39.544;2.596;2023-05-31T03:56:43;16.50;86.10
74809;DHT22;63338;39.544;2.596;2023-05-31T03:59:09;16.40;86.20
74809;DHT22;63338;39.544;2.596;2023-05-31T04:01:35;16.30;86.40
74809;DHT22;63338;39.544;2.596;2023-05-31T04:04:01;16.30;86.60
74809;DHT22;63338;39.544;2.596;2023-05-31T04:06:27;16.40;87.00
74809;DHT22;63338;39.544;2.596;2023-05-31T04:08:54;16.40;86.90
74809;DHT22;63338;39.544;2.596;2023-05-31T04:11:21;16.40;86.90
74809;DHT22;63338;39.544;2.596;2023-05-31T04:13:48;16.40;86.90
74809;DHT22;63338;39.544;2.596;2023-05-31T04:16:15;16.40;87.30
74809;DHT22;63338;39.544;2.596;2023-05-31T04:18:41;16.40;88.00
74809;DHT22;63338;39.544;2.596;2023-05-31T04:21:07;16.40;88.10
74809;DHT22;63338;39.544;2.596;2023-05-31T04:23:33;16.40;88.60
74809;DHT22;63338;39.544;2.596;2023-05-31T04:26:00;16.50;88.60
74809;DHT22;63338;39.544;2.596;2023-05-31T04:28:27;16.50;88.50
74809;DHT22;63338;39.544;2.596;2023-05-31T04:30:55;16.40;88.60
74809;DHT22;63338;39.544;2.596;2023-05-31T04:33:22;16.60;88.70
74809;DHT22;63338;39.544;2.596;2023-05-31T04:35:50;16.60;88.70
74809;DHT22;63338;39.544;2.596;2023-05-31T04:38:16;16.60;88.60
74809;DHT22;63338;39.544;2.596;2023-05-31T04:40:44;16.70;88.60
74809;DHT22;63338;39.544;2.596;2023-05-31T04:43:10;16.70;88.30
74809;DHT22;63338;39.544;2.596;2023-05-31T04:45:36;16.70;88.50
74809;DHT22;63338;39.544;2.596;2023-05-31T04:48:03;16.80;88.20
74809;DHT22;63338;39.544;2.596;2023-05-31T04:50:30;16.80;88.40
74809;DHT22;63338;39.544;2.596;2023-05-31T04:52:56;16.90;88.30
74809;DHT22;63338;39.544;2.596;2023-05-31T04:55:23;16.80;88.30
74809;DHT22;63338;39.544;2.596;2023-05-31T04:57:49;16.90;88.30
74809;DHT22;63338;39.544;2.596;2023-05-31T05:00:15;17.00;88.10
74809;DHT22;63338;39.544;2.596;2023-05-31T05:02:42;16.90;88.20
74809;DHT22;63338;39.544;2.596;2023-05-31T05:05:09;16.90;88.20
74809;DHT22;63338;39.544;2.596;2023-05-31T05:07:35;17.00;88.30
74809;DHT22;63338;39.544;2.596;2023-05-31T05:10:03;17.10;88.30
74809;DHT22;63338;39.544;2.596;2023-05-31T05:12:30;17.10;88.30
74809;DHT22;63338;39.544;2.596;2023-05-31T05:14:57;17.20;88.40
74809;DHT22;63338;39.544;2.596;2023-05-31T05:17:23;17.30;88.40
74809;DHT22;63338;39.544;2.596;2023-05-31T05:19:49;17.20;88.60
74809;DHT22;63338;39.544;2.596;2023-05-31T05:22:16;17.20;88.40
74809;DHT22;63338;39.544;2.596;2023-05-31T05:24:42;17.30;88.60
74809;DHT22;63338;39.544;2.596;2023-05-31T05:27:08;17.30;88.40
74809;DHT22;63338;39.544;2.596;2023-05-31T05:29:34;17.30;88.00
74809;DHT22;63338;39.544;2.596;2023-05-31T05:32:00;17.40;88.30
74809;DHT22;63338;39.544;2.596;2023-05-31T05:34:26;17.50;88.50
74809;DHT22;63338;39.544;2.596;2023-05-31T05:36:52;17.40;88.30
74809;DHT22;63338;39.544;2.596;2023-05-31T05:39:19;17.50;88.40
74809;DHT22;63338;39.544;2.596;2023-05-31T05:41:45;17.70;88.10
74809;DHT22;63338;39.544;2.596;2023-05-31T05:44:12;17.70;88.00
74809;DHT22;63338;39.544;2.596;2023-05-31T05:46:38;17.90;88.00
74809;DHT22;63338;39.544;2.596;2023-05-31T05:49:04;17.90;87.70
74809;DHT22;63338;39.544;2.596;2023-05-31T05:51:30;18.00;87.80
74809;DHT22;63338;39.544;2.596;2023-05-31T05:53:56;18.10;88.10
74809;DHT22;63338;39.544;2.596;2023-05-31T05:56:22;18.30;86.90
74809;DHT22;63338;39.544;2.596;2023-05-31T05:58:49;18.40;86.40
74809;DHT22;63338;39.544;2.596;2023-05-31T06:01:16;18.40;86.20
74809;DHT22;63338;39.544;2.596;2023-05-31T06:03:47;18.50;85.90
74809;DHT22;63338;39.544;2.596;2023-05-31T06:06:16;18.60;85.60
74809;DHT22;63338;39.544;2.596;2023-05-31T06:08:46;18.70;85.50
74809;DHT22;63338;39.544;2.596;2023-05-31T06:11:13;18.80;85.10
74809;DHT22;63338;39.544;2.596;2023-05-31T06:13:45;18.90;84.90
74809;DHT22;63338;39.544;2.596;2023-05-31T06:16:13;19.10;84.40
74809;DHT22;63338;39.544;2.596;2023-05-31T06:18:39;19.10;84.10
74809;DHT22;63338;39.544;2.596;2023-05-31T06:21:05;19.30;83.70
74809;DHT22;63338;39.544;2.596;2023-05-31T06:23:33;19.40;83.00
74809;DHT22;63338;39.544;2.596;2023-05-31T06:26:00;19.50;82.80
74809;DHT22;63338;39.544;2.596;2023-05-31T06:28:30;19.60;82.60
74809;DHT22;63338;39.544;2.596;2023-05-31T06:30:56;19.70;82.30
74809;DHT22;63338;39.544;2.596;2023-05-31T06:33:25;19.70;81.80
74809;DHT22;63338;39.544;2.596;2023-05-31T06:35:55;19.90;81.50
74809;DHT22;63338;39.544;2.596;2023-05-31T06:38:21;20.10;80.90
74809;DHT22;63338;39.544;2.596;2023-05-31T06:40:47;20.00;80.70
74809;DHT22;63338;39.544;2.596;2023-05-31T06:43:13;20.10;80.50
74809;DHT22;63338;39.544;2.596;2023-05-31T06:45:41;20.30;80.10
74809;DHT22;63338;39.544;2.596;2023-05-31T06:48:08;20.30;80.30
74809;DHT22;63338;39.544;2.596;2023-05-31T06:50:36;20.30;79.90
74809;DHT22;63338;39.544;2.596;2023-05-31T06:53:03;20.40;80.40
74809;DHT22;63338;39.544;2.596;2023-05-31T06:55:29;20.40;80.70
74809;DHT22;63338;39.544;2.596;2023-05-31T06:57:55;20.50;80.90
74809;DHT22;63338;39.544;2.596;2023-05-31T07:00:21;20.60;80.90
74809;DHT22;63338;39.544;2.596;2023-05-31T07:02:48;20.70;80.60
74809;DHT22;63338;39.544;2.596;2023-05-31T07:05:14;20.80;80.30
74809;DHT22;63338;39.544;2.596;2023-05-31T07:07:40;20.70;80.20
74809;DHT22;63338;39.544;2.596;2023-05-31T07:10:07;20.80;80.10
74809;DHT22;63338;39.544;2.596;2023-05-31T07:12:33;20.80;80.50
74809;DHT22;63338;39.544;2.596;2023-05-31T07:15:00;20.80;80.60
74809;DHT22;63338;39.544;2.596;2023-05-31T07:17:27;21.00;79.30
74809;DHT22;63338;39.544;2.596;2023-05-31T07:19:55;21.00;78.90
74809;DHT22;63338;39.544;2.596;2023-05-31T07:22:21;21.10;78.80
74809;DHT22;63338;39.544;2.596;2023-05-31T07:24:51;21.20;78.60
74809;DHT22;63338;39.544;2.596;2023-05-31T07:27:19;21.40;78.00
74809;DHT22;63338;39.544;2.596;2023-05-31T07:29:45;21.40;77.80
74809;DHT22;63338;39.544;2.596;2023-05-31T07:32:11;21.40;77.60
74809;DHT22;63338;39.544;2.596;2023-05-31T07:34:37;21.50;76.50
74809;DHT22;63338;39.544;2.596;2023-05-31T07:37:03;21.50;76.40
74809;DHT22;63338;39.544;2.596;2023-05-31T07:39:29;21.50;76.50
74809;DHT22;63338;39.544;2.596;2023-05-31T07:41:56;21.50;76.20
74809;DHT22;63338;39.544;2.596;2023-05-31T07:44:24;21.50;76.30
74809;DHT22;63338;39.544;2.596;2023-05-31T07:46:50;21.60;76.00
74809;DHT22;63338;39.544;2.596;2023-05-31T07:49:17;21.70;75.90
74809;DHT22;63338;39.544;2.596;2023-05-31T07:51:43;21.70;76.30
74809;DHT22;63338;39.544;2.596;2023-05-31T07:54:09;21.80;77.10
74809;DHT22;63338;39.544;2.596;2023-05-31T07:56:35;21.80;76.80
74809;DHT22;63338;39.544;2.596;2023-05-31T07:59:01;22.00;76.30
74809;DHT22;63338;39.544;2.596;2023-05-31T08:01:27;22.00;76.20
74809;DHT22;63338;39.544;2.596;2023-05-31T08:04:05;22.00;76.10
74809;DHT22;63338;39.544;2.596;2023-05-31T08:06:32;21.90;76.00
74809;DHT22;63338;39.544;2.596;2023-05-31T08:08:59;22.00;76.40
74809;DHT22;63338;39.544;2.596;2023-05-31T08:11:25;22.10;76.10
74809;DHT22;63338;39.544;2.596;2023-05-31T08:13:54;22.00;76.10
74809;DHT22;63338;39.544;2.596;2023-05-31T08:16:20;22.10;76.10
74809;DHT22;63338;39.544;2.596;2023-05-31T08:18:46;22.10;75.30
74809;DHT22;63338;39.544;2.596;2023-05-31T08:21:12;22.00;73.50
74809;DHT22;63338;39.544;2.596;2023-05-31T08:23:38;22.20;73.90
74809;DHT22;63338;39.544;2.596;2023-05-31T08:26:04;22.20;72.50
74809;DHT22;63338;39.544;2.596;2023-05-31T08:28:30;22.30;72.30
74809;DHT22;63338;39.544;2.596;2023-05-31T08:31:00;22.40;72.80
74809;DHT22;63338;39.544;2.596;2023-05-31T08:33:27;22.60;73.90
74809;DHT22;63338;39.544;2.596;2023-05-31T08:35:55;22.60;73.90
74809;DHT22;63338;39.544;2.596;2023-05-31T08:38:28;22.60;73.80
74809;DHT22;63338;39.544;2.596;2023-05-31T08:40:57;22.70;74.30
74809;DHT22;63338;39.544;2.596;2023-05-31T08:43:24;22.50;73.80
74809;DHT22;63338;39.544;2.596;2023-05-31T08:45:54;22.60;74.10
74809;DHT22;63338;39.544;2.596;2023-05-31T08:48:49;22.60;74.20
74809;DHT22;63338;39.544;2.596;2023-05-31T08:51:17;22.60;74.20
74809;DHT22;63338;39.544;2.596;2023-05-31T08:53:49;22.70;73.80
74809;DHT22;63338;39.544;2.596;2023-05-31T08:56:19;22.70;73.10
74809;DHT22;63338;39.544;2.596;2023-05-31T08:58:50;22.90;74.20
74809;DHT22;63338;39.544;2.596;2023-05-31T09:01:20;23.00;74.40
74809;DHT22;63338;39.544;2.596;2023-05-31T09:03:46;23.20;74.10
74809;DHT22;63338;39.544;2.596;2023-05-31T09:06:13;23.30;73.90
74809;DHT22;63338;39.544;2.596;2023-05-31T09:08:39;23.60;72.80
74809;DHT22;63338;39.544;2.596;2023-05-31T09:11:06;23.80;72.30
74809;DHT22;63338;39.544;2.596;2023-05-31T09:13:33;24.20;71.10
74809;DHT22;63338;39.544;2.596;2023-05-31T09:16:01;24.50;69.70
74809;DHT22;63338;39.544;2.596;2023-05-31T09:18:27;25.00;68.40
74809;DHT22;63338;39.544;2.596;2023-05-31T09:20:57;25.20;66.60
74809;DHT22;63338;39.544;2.596;2023-05-31T09:23:24;25.70;64.60
74809;DHT22;63338;39.544;2.596;2023-05-31T09:25:53;25.90;62.30
74809;DHT22;63338;39.544;2.596;2023-05-31T09:28:21;26.10;61.90
74809;DHT22;63338;39.544;2.596;2023-05-31T09:31:04;26.30;61.70
74809;DHT22;63338;39.544;2.596;2023-05-31T09:33:41;26.30;61.90
74809;DHT22;63338;39.544;2.596;2023-05-31T09:36:08;26.50;61.00
74809;DHT22;63338;39.544;2.596;2023-05-31T09:38:38;26.60;61.40
74809;DHT22;63338;39.544;2.596;2023-05-31T09:41:39;26.70;60.90
74809;DHT22;63338;39.544;2.596;2023-05-31T09:44:49;26.70;62.20
74809;DHT22;63338;39.544;2.596;2023-05-31T09:47:15;26.70;61.90
74809;DHT22;63338;39.544;2.596;2023-05-31T09:49:44;26.90;60.70
74809;DHT22;63338;39.544;2.596;2023-05-31T09:52:13;27.20;62.90
74809;DHT22;63338;39.544;2.596;2023-05-31T09:54:39;27.30;61.80
74809;DHT22;63338;39.544;2.596;2023-05-31T09:57:06;27.50;61.30
74809;DHT22;63338;39.544;2.596;2023-05-31T09:59:40;27.70;61.00
74809;DHT22;63338;39.544;2.596;2023-05-31T10:02:06;27.80;59.70
74809;DHT22;63338;39.544;2.596;2023-05-31T10:04:33;28.00;58.30
74809;DHT22;63338;39.544;2.596;2023-05-31T10:07:01;28.20;56.90
74809;DHT22;63338;39.544;2.596;2023-05-31T10:09:28;28.40;56.30
74809;DHT22;63338;39.544;2.596;2023-05-31T10:11:56;28.70;55.90
74809;DHT22;63338;39.544;2.596;2023-05-31T10:14:29;29.00;56.70
74809;DHT22;63338;39.544;2.596;2023-05-31T10:17:02;29.50;56.20
74809;DHT22;63338;39.544;2.596;2023-05-31T10:19:35;29.70;55.60
74809;DHT22;63338;39.544;2.596;2023-05-31T10:22:04;29.90;55.40
74809;DHT22;63338;39.544;2.596;2023-05-31T10:24:40;30.00;55.10
74809;DHT22;63338;39.544;2.596;2023-05-31T10:29:40;30.40;55.90
74809;DHT22;63338;39.544;2.596;2023-05-31T10:32:16;30.30;56.00
74809;DHT22;63338;39.544;2.596;2023-05-31T10:34:55;29.90;55.90
74809;DHT22;63338;39.544;2.596;2023-05-31T10:37:21;29.60;57.80
74809;DHT22;63338;39.544;2.596;2023-05-31T10:40:06;29.50;58.30
74809;DHT22;63338;39.544;2.596;2023-05-31T10:45:20;29.00;59.00
74809;DHT22;63338;39.544;2.596;2023-05-31T10:48:10;28.90;59.40
74809;DHT22;63338;39.544;2.596;2023-05-31T10:50:59;28.60;59.50
74809;DHT22;63338;39.544;2.596;2023-05-31T10:53:45;28.50;59.90
74809;DHT22;63338;39.544;2.596;2023-05-31T10:56:14;28.40;59.20
74809;DHT22;63338;39.544;2.596;2023-05-31T10:58:42;28.20;58.10
74809;DHT22;63338;39.544;2.596;2023-05-31T11:01:11;28.30;58.90
74809;DHT22;63338;39.544;2.596;2023-05-31T11:03:45;28.30;57.80
74809;DHT22;63338;39.544;2.596;2023-05-31T11:06:16;28.60;57.20
74809;DHT22;63338;39.544;2.596;2023-05-31T11:09:12;28.80;55.30
74809;DHT22;63338;39.544;2.596;2023-05-31T11:14:28;29.00;55.80
74809;DHT22;63338;39.544;2.596;2023-05-31T11:19:32;29.30;53.90
74809;DHT22;63338;39.544;2.596;2023-05-31T11:22:16;29.10;54.90
74809;DHT22;63338;39.544;2.596;2023-05-31T11:24:49;29.10;54.80
74809;DHT22;63338;39.544;2.596;2023-05-31T11:27:22;29.00;54.90
74809;DHT22;63338;39.544;2.596;2023-05-31T11:34:58;29.10;53.30
74809;DHT22;63338;39.544;2.596;2023-05-31T11:37:33;29.10;54.00
74809;DHT22;63338;39.544;2.596;2023-05-31T11:40:02;29.10;53.80
74809;DHT22;63338;39.544;2.596;2023-05-31T11:42:33;29.20;53.30
74809;DHT22;63338;39.544;2.596;2023-05-31T11:50:14;28.80;53.50
74809;DHT22;63338;39.544;2.596;2023-05-31T11:52:44;28.70;54.80
74809;DHT22;63338;39.544;2.596;2023-05-31T11:55:11;28.40;54.80
74809;DHT22;63338;39.544;2.596;2023-05-31T11:57:48;28.40;55.50
74809;DHT22;63338;39.544;2.596;2023-05-31T12:00:18;28.30;56.00
74809;DHT22;63338;39.544;2.596;2023-05-31T12:02:54;28.20;54.40
74809;DHT22;63338;39.544;2.596;2023-05-31T12:05:22;28.10;55.60
74809;DHT22;63338;39.544;2.596;2023-05-31T12:07:53;27.80;55.50
74809;DHT22;63338;39.544;2.596;2023-05-31T12:10:19;27.70;56.50
74809;DHT22;63338;39.544;2.596;2023-05-31T12:12:52;27.70;56.80
74809;DHT22;63338;39.544;2.596;2023-05-31T12:15:18;27.70;56.60
74809;DHT22;63338;39.544;2.596;2023-05-31T12:17:44;27.70;56.60
74809;DHT22;63338;39.544;2.596;2023-05-31T12:20:11;27.50;56.60
74809;DHT22;63338;39.544;2.596;2023-05-31T12:22:41;27.50;57.40
74809;DHT22;63338;39.544;2.596;2023-05-31T12:25:08;27.40;57.00
74809;DHT22;63338;39.544;2.596;2023-05-31T12:27:34;27.50;56.80
74809;DHT22;63338;39.544;2.596;2023-05-31T12:30:01;27.60;55.60
74809;DHT22;63338;39.544;2.596;2023-05-31T12:32:28;27.70;56.40
74809;DHT22;63338;39.544;2.596;2023-05-31T12:35:08;27.60;56.00
74809;DHT22;63338;39.544;2.596;2023-05-31T12:37:39;27.60;56.00
74809;DHT22;63338;39.544;2.596;2023-05-31T12:40:08;27.60;56.10
74809;DHT22;63338;39.544;2.596;2023-05-31T12:42:35;27.60;55.80
74809;DHT22;63338;39.544;2.596;2023-05-31T12:45:05;27.40;55.50
74809;DHT22;63338;39.544;2.596;2023-05-31T12:47:32;27.20;55.90
74809;DHT22;63338;39.544;2.596;2023-05-31T12:50:06;26.80;55.70
74809;DHT22;63338;39.544;2.596;2023-05-31T12:52:37;26.60;56.90
74809;DHT22;63338;39.544;2.596;2023-05-31T12:55:07;26.60;58.60
74809;DHT22;63338;39.544;2.596;2023-05-31T12:57:35;26.50;57.80
74809;DHT22;63338;39.544;2.596;2023-05-31T13:00:06;26.40;57.60
74809;DHT22;63338;39.544;2.596;2023-05-31T13:02:37;26.40;57.00
74809;DHT22;63338;39.544;2.596;2023-05-31T13:05:04;26.20;63.10
74809;DHT22;63338;39.544;2.596;2023-05-31T13:07:31;26.00;64.10
74809;DHT22;63338;39.544;2.596;2023-05-31T13:09:57;25.90;61.40
74809;DHT22;63338;39.544;2.596;2023-05-31T13:12:23;25.90;61.10
74809;DHT22;63338;39.544;2.596;2023-05-31T13:14:49;25.80;62.40
74809;DHT22;63338;39.544;2.596;2023-05-31T13:17:21;25.90;64.50
74809;DHT22;63338;39.544;2.596;2023-05-31T13:19:47;25.80;66.30
74809;DHT22;63338;39.544;2.596;2023-05-31T13:22:13;25.80;66.10
74809;DHT22;63338;39.544;2.596;2023-05-31T13:24:39;25.80;66.80
74809;DHT22;63338;39.544;2.596;2023-05-31T13:27:06;25.80;68.70
74809;DHT22;63338;39.544;2.596;2023-05-31T13:29:32;25.50;68.70
74809;DHT22;63338;39.544;2.596;2023-05-31T13:31:59;25.50;68.50
74809;DHT22;63338;39.544;2.596;2023-05-31T13:34:29;25.40;68.10
74809;DHT22;63338;39.544;2.596;2023-05-31T13:36:56;25.20;64.90
74809;DHT22;63338;39.544;2.596;2023-05-31T13:39:23;25.20;66.90
74809;DHT22;63338;39.544;2.596;2023-05-31T13:41:53;25.10;68.10
74809;DHT22;63338;39.544;2.596;2023-05-31T13:44:26;25.10;67.40
74809;DHT22;63338;39.544;2.596;2023-05-31T13:51:30;25.20;66.90
74809;DHT22;63338;39.544;2.596;2023-05-31T13:53:56;25.20;65.20
74809;DHT22;63338;39.544;2.596;2023-05-31T13:56:23;25.20;65.50
74809;DHT22;63338;39.544;2.596;2023-05-31T13:58:49;25.40;64.90
74809;DHT22;63338;39.544;2.596;2023-05-31T14:01:18;25.50;64.90
74809;DHT22;63338;39.544;2.596;2023-05-31T14:03:44;25.40;64.70
74809;DHT22;63338;39.544;2.596;2023-05-31T14:06:10;25.30;64.80
74809;DHT22;63338;39.544;2.596;2023-05-31T14:08:37;25.30;63.90
74809;DHT22;63338;39.544;2.596;2023-05-31T14:11:06;25.40;63.80
74809;DHT22;63338;39.544;2.596;2023-05-31T14:13:33;25.50;63.60
74809;DHT22;63338;39.544;2.596;2023-05-31T14:16:00;25.50;64.10
74809;DHT22;63338;39.544;2.596;2023-05-31T14:18:26;25.50;65.60
74809;DHT22;63338;39.544;2.596;2023-05-31T14:20:55;25.50;71.60
74809;DHT22;63338;39.544;2.596;2023-05-31T14:23:25;24.70;69.20
74809;DHT22;63338;39.544;2.596;2023-05-31T14:25:51;23.80;75.80
74809;DHT22;63338;39.544;2.596;2023-05-31T14:28:17;23.20;82.10
74809;DHT22;63338;39.544;2.596;2023-05-31T14:30:44;22.60;82.40
74809;DHT22;63338;39.544;2.596;2023-05-31T14:33:10;21.80;83.50
74809;DHT22;63338;39.544;2.596;2023-05-31T14:35:39;21.40;86.80
74809;DHT22;63338;39.544;2.596;2023-05-31T14:38:09;21.20;88.70
74809;DHT22;63338;39.544;2.596;2023-05-31T14:40:52;21.10;90.20
74809;DHT22;63338;39.544;2.596;2023-05-31T14:43:18;21.10;91.20
74809;DHT22;63338;39.544;2.596;2023-05-31T14:45:45;21.10;91.90
74809;DHT22;63338;39.544;2.596;2023-05-31T14:48:15;21.10;92.40
74809;DHT22;63338;39.544;2.596;2023-05-31T14:50:41;21.10;92.90
74809;DHT22;63338;39.544;2.596;2023-05-31T14:53:09;21.20;93.30
74809;DHT22;63338;39.544;2.596;2023-05-31T14:55:39;21.20;93.40
74809;DHT22;63338;39.544;2.596;2023-05-31T14:58:05;21.20;93.70
74809;DHT22;63338;39.544;2.596;2023-05-31T15:00:32;21.30;93.90
74809;DHT22;63338;39.544;2.596;2023-05-31T15:02:58;21.30;94.30
74809;DHT22;63338;39.544;2.596;2023-05-31T15:05:25;21.60;94.60
74809;DHT22;63338;39.544;2.596;2023-05-31T15:07:51;21.60;94.70
74809;DHT22;63338;39.544;2.596;2023-05-31T15:10:17;21.80;94.80
74809;DHT22;63338;39.544;2.596;2023-05-31T15:12:43;21.90;94.60
74809;DHT22;63338;39.544;2.596;2023-05-31T15:15:13;22.00;94.00
74809;DHT22;63338;39.544;2.596;2023-05-31T15:17:41;22.00;93.20
74809;DHT22;63338;39.544;2.596;2023-05-31T15:20:08;22.00;92.60
74809;DHT22;63338;39.544;2.596;2023-05-31T15:22:35;22.00;91.40
74809;DHT22;63338;39.544;2.596;2023-05-31T15:25:07;22.00;90.70
74809;DHT22;63338;39.544;2.596;2023-05-31T15:28:01;22.00;90.50
74809;DHT22;63338;39.544;2.596;2023-05-31T15:30:38;22.10;90.70
74809;DHT22;63338;39.544;2.596;2023-05-31T15:33:05;22.20;90.40
74809;DHT22;63338;39.544;2.596;2023-05-31T15:35:31;22.30;89.60
74809;DHT22;63338;39.544;2.596;2023-05-31T15:38:00;22.30;89.20
74809;DHT22;63338;39.544;2.596;2023-05-31T15:40:26;22.50;89.20
74809;DHT22;63338;39.544;2.596;2023-05-31T15:42:55;22.50;88.90
74809;DHT22;63338;39.544;2.596;2023-05-31T15:45:21;22.50;88.60
74809;DHT22;63338;39.544;2.596;2023-05-31T15:47:49;22.60;87.70
74809;DHT22;63338;39.544;2.596;2023-05-31T15:50:15;22.60;86.80
74809;DHT22;63338;39.544;2.596;2023-05-31T15:52:41;22.60;85.60
74809;DHT22;63338;39.544;2.596;2023-05-31T15:55:07;22.50;85.50
74809;DHT22;63338;39.544;2.596;2023-05-31T15:57:34;22.60;85.40
74809;DHT22;63338;39.544;2.596;2023-05-31T16:00:00;22.50;85.10
74809;DHT22;63338;39.544;2.596;2023-05-31T16:02:26;22.40;84.90
74809;DHT22;63338;39.544;2.596;2023-05-31T16:04:53;22.40;84.60
74809;DHT22;63338;39.544;2.596;2023-05-31T16:07:19;22.30;84.30